createdAt,value
2023-02-17T00:01:49.951Z,17.20
2023-02-17T00:04:20.539Z,17.20
2023-02-17T00:06:52.040Z,17.20
2023-02-17T00:09:24.411Z,17.20
2023-02-17T00:11:55.997Z,17.20
2023-02-17T00:14:28.492Z,17.20
2023-02-17T00:16:58.419Z,17.20
2023-02-17T00:19:30.024Z,17.20
2023-02-17T00:22:04.995Z,17.20
2023-02-17T00:24:34.505Z,17.20
2023-02-17T00:27:06.419Z,17.20
2023-02-17T00:29:36.541Z,17.20
2023-02-17T00:32:08.687Z,17.10
2023-02-17T00:34:38.924Z,17.20
2023-02-17T00:37:09.106Z,17.10
2023-02-17T00:39:40.212Z,17.10
2023-02-17T00:42:14.409Z,17.20
2023-02-17T00:44:44.868Z,17.10
2023-02-17T00:47:15.407Z,17.10
2023-02-17T00:49:45.565Z,17.10
2023-02-17T00:52:15.776Z,17.20
2023-02-17T00:54:57.506Z,17.10
2023-02-17T00:57:26.584Z,17.10
2023-02-17T00:59:59.128Z,17.10
2023-02-17T01:02:30.723Z,17.20
2023-02-17T01:05:02.924Z,17.10
2023-02-17T01:07:34.619Z,17.10
2023-02-17T01:10:05.176Z,17.10
2023-02-17T01:12:35.664Z,17.10
2023-02-17T01:15:05.890Z,17.10
2023-02-17T01:17:38.017Z,17.10
2023-02-17T01:20:14.670Z,17.10
2023-02-17T01:22:43.180Z,17.10
2023-02-17T01:25:14.775Z,17.10
2023-02-17T01:27:45.037Z,17.10
2023-02-17T01:30:15.836Z,17.10
2023-02-17T01:32:48.702Z,17.10
2023-02-17T01:35:20.051Z,17.10
2023-02-17T01:37:47.803Z,17.10
2023-02-17T01:40:23.331Z,17.10
2023-02-17T01:42:52.716Z,17.10
2023-02-17T01:48:21.573Z,17.10
2023-02-17T01:51:08.343Z,17.10
2023-02-17T01:53:45.040Z,17.10
2023-02-17T01:56:14.746Z,17.10
2023-02-17T01:58:56.601Z,17.10
2023-02-17T02:01:25.517Z,17.10
2023-02-17T02:03:56.396Z,17.10
2023-02-17T02:06:32.766Z,17.10
2023-02-17T02:09:26.839Z,17.10
2023-02-17T02:11:59.797Z,17.10
2023-02-17T02:14:35.803Z,17.10
2023-02-17T02:17:35.699Z,17.10
2023-02-17T02:20:41.723Z,17.10
2023-02-17T02:23:22.516Z,17.10
2023-02-17T02:26:23.752Z,17.10
2023-02-17T02:29:30.133Z,17.10
2023-02-17T02:32:42.200Z,17.10
2023-02-17T02:35:52.435Z,17.10
2023-02-17T02:38:44.209Z,17.10
2023-02-17T02:41:24.719Z,17.10
2023-02-17T02:43:55.980Z,17.10
2023-02-17T02:46:27.614Z,17.00
2023-02-17T02:49:01.041Z,17.10
2023-02-17T02:52:14.793Z,17.00
2023-02-17T02:55:10.561Z,17.10
2023-02-17T02:58:21.462Z,17.10
2023-02-17T03:01:24.082Z,17.10
2023-02-17T03:04:09.674Z,17.10
2023-02-17T03:06:46.501Z,17.00
2023-02-17T03:09:27.262Z,17.10
2023-02-17T03:12:02.865Z,17.00
2023-02-17T03:14:39.971Z,17.10
2023-02-17T03:17:11.800Z,17.00
2023-02-17T03:19:40.682Z,17.00
2023-02-17T03:22:22.685Z,17.10
2023-02-17T03:24:54.552Z,17.10
2023-02-17T03:27:24.666Z,17.10
2023-02-17T03:29:54.153Z,17.10
2023-02-17T03:32:25.338Z,17.10
2023-02-17T03:34:54.706Z,17.10
2023-02-17T03:37:27.170Z,17.00
2023-02-17T03:39:56.352Z,17.10
2023-02-17T03:42:27.590Z,17.00
2023-02-17T03:44:56.793Z,17.10
2023-02-17T03:47:25.863Z,17.00
2023-02-17T03:49:56.476Z,17.00
2023-02-17T03:52:27.658Z,17.00
2023-02-17T03:54:58.562Z,17.10
2023-02-17T03:57:29.592Z,17.10
2023-02-17T04:00:00.782Z,17.00
2023-02-17T04:02:32.627Z,17.00
2023-02-17T04:05:02.592Z,17.00
2023-02-17T04:07:33.411Z,17.00
2023-02-17T04:10:05.879Z,17.10
2023-02-17T04:12:38.098Z,17.00
2023-02-17T04:15:11.566Z,17.00
2023-02-17T04:17:44.196Z,17.10
2023-02-17T04:22:56.652Z,17.00
2023-02-17T04:25:26.738Z,17.00
2023-02-17T04:28:00.490Z,17.10
2023-02-17T04:30:30.077Z,17.00
2023-02-17T04:33:03.275Z,17.00
2023-02-17T04:35:33.957Z,17.00
2023-02-17T04:38:06.351Z,17.00
2023-02-17T04:40:35.655Z,17.00
2023-02-17T04:43:06.247Z,17.00
2023-02-17T04:45:41.243Z,17.00
2023-02-17T04:48:11.899Z,17.00
2023-02-17T04:50:43.379Z,17.00
2023-02-17T04:53:15.971Z,17.00
2023-02-17T04:55:46.185Z,17.00
2023-02-17T04:58:18.224Z,17.00
2023-02-17T05:00:50.373Z,17.00
2023-02-17T05:03:23.037Z,17.00
2023-02-17T05:05:54.659Z,17.00
2023-02-17T05:08:23.572Z,17.00
2023-02-17T05:11:03.484Z,17.10
2023-02-17T05:13:32.598Z,17.00
2023-02-17T05:16:04.412Z,17.00
2023-02-17T05:18:38.169Z,17.00
2023-02-17T05:21:06.847Z,17.00
2023-02-17T05:23:44.736Z,17.00
2023-02-17T05:26:12.853Z,17.00
2023-02-17T05:28:44.191Z,17.00
2023-02-17T05:31:16.118Z,17.00
2023-02-17T05:33:46.724Z,17.00
2023-02-17T05:36:16.270Z,17.00
2023-02-17T05:38:49.024Z,17.00
2023-02-17T05:41:20.830Z,17.00
2023-02-17T05:43:51.583Z,17.00
2023-02-17T05:46:23.281Z,17.00
2023-02-17T05:48:57.554Z,17.00
2023-02-17T05:51:26.922Z,17.00
2023-02-17T05:53:57.135Z,17.00
2023-02-17T05:56:25.269Z,17.00
2023-02-17T05:58:55.832Z,17.00
2023-02-17T06:01:26.230Z,17.00
2023-02-17T06:03:53.631Z,17.00
2023-02-17T06:06:25.322Z,17.00
2023-02-17T06:08:55.878Z,17.00
2023-02-17T06:11:27.123Z,17.00
2023-02-17T06:13:57.967Z,17.00
2023-02-17T06:16:26.094Z,17.00
2023-02-17T06:18:54.983Z,17.00
2023-02-17T06:21:23.306Z,17.00
2023-02-17T06:23:53.480Z,17.00
2023-02-17T06:26:25.530Z,17.00
2023-02-17T06:28:55.697Z,17.00
2023-02-17T06:31:25.917Z,16.90
2023-02-17T06:33:58.224Z,17.00
2023-02-17T06:36:28.523Z,17.00
2023-02-17T06:38:56.622Z,17.00
2023-02-17T06:41:27.799Z,17.00
2023-02-17T06:43:57.502Z,17.10
2023-02-17T06:46:28.891Z,17.20
2023-02-17T06:49:00.274Z,17.20
2023-02-17T06:51:30.551Z,17.30
2023-02-17T06:54:00.600Z,17.40
2023-02-17T06:56:31.103Z,17.40
2023-02-17T06:59:01.300Z,17.40
2023-02-17T07:01:33.058Z,17.50
2023-02-17T07:04:02.677Z,17.50
2023-02-17T07:06:34.297Z,17.50
2023-02-17T07:09:05.567Z,17.50
2023-02-17T07:11:32.910Z,17.50
2023-02-17T07:14:03.425Z,17.50
2023-02-17T07:16:31.845Z,17.60
2023-02-17T07:19:04.494Z,17.60
2023-02-17T07:21:40.963Z,17.60
2023-02-17T07:24:12.599Z,17.60
2023-02-17T07:26:42.931Z,17.60
2023-02-17T07:29:12.338Z,17.60
2023-02-17T07:31:43.717Z,17.50
2023-02-17T07:34:12.599Z,17.60
2023-02-17T07:36:44.064Z,17.50
2023-02-17T07:39:16.622Z,17.60
2023-02-17T07:41:46.678Z,17.60
2023-02-17T07:44:15.256Z,17.60
2023-02-17T07:46:46.598Z,17.60
2023-02-17T07:49:20.979Z,17.70
2023-02-17T07:51:50.866Z,17.80
2023-02-17T07:54:21.696Z,17.80
2023-02-17T07:56:49.951Z,17.80
2023-02-17T07:59:21.325Z,17.80
2023-02-17T08:01:51.324Z,17.80
2023-02-17T08:04:20.410Z,17.80
2023-02-17T08:06:50.807Z,17.80
2023-02-17T08:09:40.498Z,17.80
2023-02-17T08:12:40.558Z,17.70
2023-02-17T08:15:11.843Z,17.80
2023-02-17T08:17:42.477Z,17.80
2023-02-17T08:20:16.994Z,17.80
2023-02-17T08:22:46.953Z,17.70
2023-02-17T08:25:17.750Z,17.70
2023-02-17T08:27:48.260Z,17.70
2023-02-17T08:30:28.109Z,17.70
2023-02-17T08:33:00.312Z,17.70
2023-02-17T08:35:32.634Z,17.60
2023-02-17T08:37:59.396Z,17.60
2023-02-17T08:40:34.103Z,17.50
2023-02-17T08:43:05.600Z,17.60
2023-02-17T08:45:35.083Z,17.50
2023-02-17T08:48:06.090Z,17.50
2023-02-17T08:50:38.117Z,17.50
2023-02-17T08:53:08.668Z,17.50
2023-02-17T08:55:48.881Z,17.50
2023-02-17T08:58:21.934Z,17.50
2023-02-17T09:00:54.157Z,17.50
2023-02-17T09:03:26.479Z,17.50
2023-02-17T09:06:01.882Z,17.50
2023-02-17T09:08:33.706Z,17.50
2023-02-17T09:11:00.676Z,17.50
2023-02-17T09:13:30.892Z,17.50
2023-02-17T09:16:05.848Z,17.40
2023-02-17T09:18:39.225Z,17.40
2023-02-17T09:21:15.206Z,17.40
2023-02-17T09:23:46.474Z,17.40
2023-02-17T09:26:20.216Z,17.40
2023-02-17T09:28:55.136Z,17.40
2023-02-17T09:31:27.678Z,17.40
2023-02-17T09:34:00.424Z,17.40
2023-02-17T09:36:44.663Z,17.40
2023-02-17T09:39:16.862Z,17.40
2023-02-17T09:41:54.946Z,17.40
2023-02-17T09:44:28.766Z,17.40
2023-02-17T09:47:30.224Z,17.40
2023-02-17T09:50:07.546Z,17.40
2023-02-17T09:52:57.895Z,17.40
2023-02-17T09:55:44.579Z,17.40
2023-02-17T09:58:26.975Z,17.40
2023-02-17T10:04:03.207Z,17.40
2023-02-17T10:06:44.392Z,17.40
2023-02-17T10:09:41.582Z,17.40
2023-02-17T10:12:23.099Z,17.40
2023-02-17T10:15:21.965Z,17.40
2023-02-17T10:17:57.612Z,17.40
2023-02-17T10:20:43.732Z,17.40
2023-02-17T10:23:31.313Z,17.40
2023-02-17T10:26:43.671Z,17.40
2023-02-17T10:29:30.896Z,17.40
2023-02-17T10:32:28.740Z,17.40
2023-02-17T10:35:24.560Z,17.40
2023-02-17T10:38:23.319Z,17.40
2023-02-17T10:43:41.589Z,17.40
2023-02-17T10:46:17.786Z,17.40
2023-02-17T10:49:07.223Z,17.40
2023-02-17T10:54:34.933Z,17.40
2023-02-17T10:57:21.924Z,17.40
2023-02-17T10:59:52.772Z,17.40
2023-02-17T11:02:34.244Z,17.40
2023-02-17T11:07:45.969Z,17.40
2023-02-17T11:10:48.781Z,17.40
2023-02-17T11:13:44.466Z,17.40
2023-02-17T11:16:29.412Z,17.40
2023-02-17T11:19:06.012Z,17.40
2023-02-17T11:21:36.754Z,17.40
2023-02-17T11:24:16.190Z,17.40
2023-02-17T11:26:58.783Z,17.40
2023-02-17T11:29:28.579Z,17.40
2023-02-17T11:32:13.876Z,17.40
2023-02-17T11:34:46.988Z,17.40
2023-02-17T11:37:27.024Z,17.40
2023-02-17T11:39:55.928Z,17.40
2023-02-17T11:42:36.383Z,17.40
2023-02-17T11:45:31.489Z,17.40
2023-02-17T11:48:21.641Z,17.40
2023-02-17T11:51:13.189Z,17.40
2023-02-17T11:54:22.914Z,17.40
2023-02-17T11:57:25.932Z,17.40
2023-02-17T12:00:11.760Z,17.40
2023-02-17T12:03:25.166Z,17.40
2023-02-17T12:06:24.513Z,17.40
2023-02-17T12:09:16.756Z,17.50
2023-02-17T12:12:15.318Z,17.50
2023-02-17T12:15:03.124Z,17.40
2023-02-17T12:18:30.671Z,17.50
2023-02-17T12:21:27.188Z,17.50
2023-02-17T12:24:17.570Z,17.40
2023-02-17T12:27:11.992Z,17.50
2023-02-17T12:30:21.865Z,17.40
2023-02-17T12:33:20.604Z,17.50
2023-02-17T12:36:17.873Z,17.40
2023-02-17T12:39:06.022Z,17.50
2023-02-17T12:41:57.002Z,17.50
2023-02-17T12:44:53.958Z,17.50
2023-02-17T12:48:00.318Z,17.40
2023-02-17T12:50:41.505Z,17.50
2023-02-17T12:53:27.692Z,17.50
2023-02-17T12:56:06.392Z,17.50
2023-02-17T12:58:42.271Z,17.50
2023-02-17T13:01:20.073Z,17.50
2023-02-17T13:03:50.665Z,17.50
2023-02-17T13:06:40.975Z,17.50
2023-02-17T13:09:33.712Z,17.50
2023-02-17T13:12:28.628Z,17.50
2023-02-17T13:15:29.673Z,17.60
2023-02-17T13:18:03.650Z,17.50
2023-02-17T13:20:58.723Z,17.50
2023-02-17T13:23:39.942Z,17.60
2023-02-17T13:26:30.744Z,17.50
2023-02-17T13:29:11.616Z,17.60
2023-02-17T13:31:55.474Z,17.50
2023-02-17T13:34:41.944Z,17.70
2023-02-17T13:37:59.504Z,17.70
2023-02-17T13:40:35.275Z,17.60
2023-02-17T13:43:22.880Z,17.60
2023-02-17T13:46:06.475Z,17.60
2023-02-17T13:48:40.907Z,17.60
2023-02-17T13:51:26.537Z,17.60
2023-02-17T13:53:54.987Z,17.60
2023-02-17T13:56:28.404Z,17.50
2023-02-17T13:59:21.320Z,17.60
2023-02-17T14:02:26.933Z,17.60
2023-02-17T14:05:29.678Z,17.50
2023-02-17T14:08:12.852Z,17.50
2023-02-17T14:10:41.354Z,17.50
2023-02-17T14:13:18.851Z,17.50
2023-02-17T14:16:00.496Z,17.50
2023-02-17T14:18:36.082Z,17.50
2023-02-17T14:21:28.211Z,17.50
2023-02-17T14:24:03.321Z,17.50
2023-02-17T14:26:53.224Z,17.50
2023-02-17T14:29:25.964Z,17.50
2023-02-17T14:31:55.721Z,17.50
2023-02-17T14:34:38.510Z,17.50
2023-02-17T14:37:17.401Z,17.50
2023-02-17T14:39:47.360Z,17.50
2023-02-17T14:42:19.471Z,17.50
2023-02-17T14:44:48.576Z,17.50
2023-02-17T14:47:18.396Z,17.60
2023-02-17T14:52:32.860Z,17.50
2023-02-17T14:55:03.442Z,17.50
2023-02-17T14:57:34.134Z,17.50
2023-02-17T15:00:06.212Z,17.50
2023-02-17T15:02:40.635Z,17.50
2023-02-17T15:05:10.448Z,17.50
2023-02-17T15:07:40.969Z,17.50
2023-02-17T15:10:31.844Z,17.50
2023-02-17T15:13:12.819Z,17.50
2023-02-17T15:15:48.276Z,17.50
2023-02-17T15:18:17.802Z,17.40
2023-02-17T15:20:53.129Z,17.50
2023-02-17T15:23:33.183Z,17.50
2023-02-17T15:26:04.312Z,17.50
2023-02-17T15:28:34.760Z,17.40
2023-02-17T15:31:04.923Z,17.50
2023-02-17T15:33:39.340Z,17.50
2023-02-17T15:36:09.306Z,17.50
2023-02-17T15:38:38.523Z,17.50
2023-02-17T15:41:24.604Z,17.40
2023-02-17T15:43:53.661Z,17.40
2023-02-17T15:46:32.570Z,17.40
2023-02-17T15:49:03.401Z,17.40
2023-02-17T15:51:31.408Z,17.40
2023-02-17T15:54:00.828Z,17.40
2023-02-17T15:56:46.307Z,17.40
2023-02-17T15:59:19.247Z,17.40
2023-02-17T16:01:52.343Z,17.40
2023-02-17T16:04:22.785Z,17.40
2023-02-17T16:06:52.920Z,17.40
2023-02-17T16:09:24.865Z,17.40
2023-02-17T16:11:57.563Z,17.40
2023-02-17T16:14:36.318Z,17.40
2023-02-17T16:17:08.492Z,17.40
2023-02-17T16:19:38.969Z,17.40
2023-02-17T16:22:11.148Z,17.40
2023-02-17T16:24:45.929Z,17.40
2023-02-17T16:27:16.993Z,17.40
2023-02-17T16:29:46.904Z,17.40
2023-02-17T16:32:19.062Z,17.40
2023-02-17T16:34:47.590Z,17.40
2023-02-17T16:37:17.786Z,17.40
2023-02-17T16:39:49.443Z,17.40
2023-02-17T16:42:17.711Z,17.40
2023-02-17T16:44:50.196Z,17.40
2023-02-17T16:47:30.255Z,17.40
2023-02-17T16:50:01.430Z,17.40
2023-02-17T16:52:30.628Z,17.40
2023-02-17T16:55:02.432Z,17.40
2023-02-17T16:57:32.159Z,17.40
2023-02-17T17:00:04.878Z,17.40
2023-02-17T17:02:36.969Z,17.40
2023-02-17T17:05:08.021Z,17.50
2023-02-17T17:07:39.486Z,17.50
2023-02-17T17:13:03.642Z,17.40
2023-02-17T17:15:37.062Z,17.50
2023-02-17T17:18:14.861Z,17.50
2023-02-17T17:20:45.324Z,17.50
2023-02-17T17:23:15.134Z,17.50
2023-02-17T17:25:53.442Z,17.50
2023-02-17T17:28:36.266Z,17.60
2023-02-17T17:31:05.961Z,17.60
2023-02-17T17:33:33.013Z,17.60
2023-02-17T17:36:02.526Z,17.60
2023-02-17T17:38:30.621Z,17.60
2023-02-17T17:41:03.681Z,17.60
2023-02-17T17:43:30.416Z,17.60
2023-02-17T17:45:59.162Z,17.60
2023-02-17T17:48:30.407Z,17.60
2023-02-17T17:51:01.515Z,17.60
2023-02-17T17:53:29.217Z,17.60
2023-02-17T17:55:57.979Z,17.60
2023-02-17T17:58:25.165Z,17.60
2023-02-17T18:00:56.401Z,17.60
2023-02-17T18:03:26.724Z,17.60
2023-02-17T18:05:57.001Z,17.60
2023-02-17T18:08:27.488Z,17.60
2023-02-17T18:10:58.534Z,17.60
2023-02-17T18:13:30.274Z,17.60
2023-02-17T18:15:57.181Z,17.60
2023-02-17T18:18:25.536Z,17.60
2023-02-17T18:20:52.265Z,17.60
2023-02-17T18:23:21.028Z,17.50
2023-02-17T18:25:51.771Z,17.60
2023-02-17T18:28:19.658Z,17.50
2023-02-17T18:30:49.442Z,17.60
2023-02-17T18:33:20.311Z,17.60
2023-02-17T18:38:36.264Z,17.60
2023-02-17T18:41:07.866Z,17.60
2023-02-17T18:43:39.474Z,17.60
2023-02-17T18:46:11.734Z,17.60
2023-02-17T18:48:42.532Z,17.60
2023-02-17T18:51:13.229Z,17.60
2023-02-17T18:54:00.555Z,17.60
2023-02-17T18:56:33.643Z,17.60
2023-02-17T18:59:04.822Z,17.60
2023-02-17T19:01:43.003Z,17.60
2023-02-17T19:04:19.721Z,17.60
2023-02-17T19:06:49.770Z,17.60
2023-02-17T19:09:29.112Z,17.60
2023-02-17T19:11:59.432Z,17.60
2023-02-17T19:14:28.337Z,17.60
2023-02-17T19:16:58.513Z,17.60
2023-02-17T19:19:33.921Z,17.60
2023-02-17T19:22:02.302Z,17.60
2023-02-17T19:27:15.042Z,17.60
2023-02-17T19:29:49.843Z,17.60
2023-02-17T19:32:20.452Z,17.60
2023-02-17T19:34:52.322Z,17.60
2023-02-17T19:37:22.679Z,17.60
2023-02-17T19:39:51.703Z,17.60
2023-02-17T19:42:22.199Z,17.60
2023-02-17T19:44:49.301Z,17.60
2023-02-17T19:47:19.562Z,17.60
2023-02-17T19:49:54.048Z,17.60
2023-02-17T19:52:24.399Z,17.60
2023-02-17T19:54:55.641Z,17.60
2023-02-17T19:57:24.915Z,17.60
2023-02-17T19:59:54.614Z,17.60
2023-02-17T20:02:24.016Z,17.60
2023-02-17T20:04:52.661Z,17.60
2023-02-17T20:07:24.707Z,17.60
2023-02-17T20:09:51.876Z,17.60
2023-02-17T20:12:21.831Z,17.60
2023-02-17T20:14:56.012Z,17.60
2023-02-17T20:17:26.373Z,17.60
2023-02-17T20:19:56.133Z,17.60
2023-02-17T20:22:22.879Z,17.50
2023-02-17T20:24:54.479Z,17.60
2023-02-17T20:27:26.473Z,17.60
2023-02-17T20:29:55.375Z,17.60
2023-02-17T20:32:26.370Z,17.60
2023-02-17T20:34:57.331Z,17.60
2023-02-17T20:37:29.564Z,17.50
2023-02-17T20:40:00.822Z,17.60
2023-02-17T20:42:30.146Z,17.60
2023-02-17T20:45:00.630Z,17.60
2023-02-17T20:47:29.801Z,17.60
2023-02-17T20:50:00.369Z,17.60
2023-02-17T20:52:29.801Z,17.60
2023-02-17T20:55:00.176Z,17.60
2023-02-17T20:57:28.625Z,17.60
2023-02-17T20:59:57.424Z,17.60
2023-02-17T21:02:27.871Z,17.60
2023-02-17T21:05:00.338Z,17.60
2023-02-17T21:07:30.297Z,17.60
2023-02-17T21:10:01.674Z,17.60
2023-02-17T21:12:35.864Z,17.60
2023-02-17T21:15:04.615Z,17.60
2023-02-17T21:17:36.215Z,17.60
2023-02-17T21:20:10.362Z,17.60
2023-02-17T21:22:39.034Z,17.60
2023-02-17T21:25:09.559Z,17.60
2023-02-17T21:27:38.992Z,17.60
2023-02-17T21:30:15.252Z,17.60
2023-02-17T21:32:46.379Z,17.60
2023-02-17T21:35:18.608Z,17.60
2023-02-17T21:37:49.935Z,17.50
2023-02-17T21:40:21.660Z,17.60
2023-02-17T21:43:12.432Z,17.50
2023-02-17T21:45:48.272Z,17.60
2023-02-17T21:48:20.904Z,17.60
2023-02-17T21:50:52.771Z,17.50
2023-02-17T21:53:23.196Z,17.60
2023-02-17T21:55:53.777Z,17.50
2023-02-17T21:58:22.505Z,17.50
2023-02-17T22:00:54.719Z,17.50
2023-02-17T22:03:24.001Z,17.50
2023-02-17T22:05:54.434Z,17.50
2023-02-17T22:08:28.868Z,17.60
2023-02-17T22:11:01.356Z,17.50
2023-02-17T22:13:32.246Z,17.60
2023-02-17T22:16:04.302Z,17.50
2023-02-17T22:18:35.697Z,17.50
2023-02-17T22:21:15.732Z,17.50
2023-02-17T22:23:47.100Z,17.50
2023-02-17T22:26:24.705Z,17.50
2023-02-17T22:28:59.149Z,17.50
2023-02-17T22:31:29.811Z,17.50
2023-02-17T22:34:02.063Z,17.50
2023-02-17T22:36:36.926Z,17.50
2023-02-17T22:39:08.251Z,17.50
2023-02-17T22:41:38.584Z,17.50
2023-02-17T22:44:11.161Z,17.50
2023-02-17T22:46:39.587Z,17.50
2023-02-17T22:49:10.315Z,17.50
2023-02-17T22:51:43.333Z,17.50
2023-02-17T22:54:15.672Z,17.50
2023-02-17T22:56:46.700Z,17.50
2023-02-17T22:59:19.232Z,17.50
2023-02-17T23:01:49.347Z,17.50
2023-02-17T23:04:18.054Z,17.50
2023-02-17T23:06:51.894Z,17.50
2023-02-17T23:09:22.566Z,17.50
2023-02-17T23:12:05.995Z,17.50
2023-02-17T23:14:43.307Z,17.50
2023-02-17T23:17:12.949Z,17.50
2023-02-17T23:19:45.180Z,17.50
2023-02-17T23:22:19.444Z,17.50
2023-02-17T23:24:51.578Z,17.50
2023-02-17T23:27:23.496Z,17.50
2023-02-17T23:29:54.021Z,17.40
2023-02-17T23:32:25.355Z,17.50
2023-02-17T23:35:00.612Z,17.50
2023-02-17T23:37:29.694Z,17.50
2023-02-17T23:40:00.977Z,17.40
2023-02-17T23:42:32.897Z,17.50
2023-02-17T23:45:06.530Z,17.50
2023-02-17T23:47:35.818Z,17.50
2023-02-17T23:50:05.834Z,17.50
2023-02-17T23:52:36.625Z,17.50
2023-02-17T23:55:08.954Z,17.40
2023-02-17T23:57:51.427Z,17.50
